createdAt,value
2017-12-20T00:04:43.963Z,18.97
2017-12-20T00:09:45.638Z,19.77
2017-12-20T00:14:47.893Z,18.53
2017-12-20T00:19:49.512Z,17.97
2017-12-20T00:24:51.051Z,17.50
2017-12-20T00:29:53.644Z,17.70
2017-12-20T00:34:55.243Z,17.47
2017-12-20T00:39:57.454Z,17.30
2017-12-20T00:45:00.182Z,16.60
2017-12-20T00:50:02.196Z,15.93
2017-12-20T00:55:03.823Z,15.13
2017-12-20T01:00:05.048Z,15.70
2017-12-20T01:05:06.237Z,15.10
2017-12-20T01:10:07.480Z,15.60
2017-12-20T01:15:09.429Z,14.33
2017-12-20T01:20:10.679Z,13.20
2017-12-20T01:25:12.629Z,12.23
2017-12-20T01:30:13.844Z,11.43
2017-12-20T01:35:15.065Z,10.30
2017-12-20T01:40:16.281Z,9.60
2017-12-20T01:45:17.485Z,9.80
2017-12-20T01:50:18.706Z,10.13
2017-12-20T01:55:19.904Z,9.20
2017-12-20T02:00:21.117Z,9.00
2017-12-20T02:05:22.324Z,8.63
2017-12-20T02:10:23.547Z,9.27
2017-12-20T02:15:24.758Z,8.00
2017-12-20T02:20:25.999Z,7.77
2017-12-20T02:25:27.222Z,7.37
2017-12-20T02:30:28.450Z,7.10
2017-12-20T02:35:29.645Z,6.80
2017-12-20T02:40:30.863Z,6.47
2017-12-20T02:45:32.054Z,6.37
2017-12-20T02:50:34.014Z,7.20
2017-12-20T02:55:35.226Z,7.70
2017-12-20T03:00:36.458Z,8.67
2017-12-20T03:05:37.662Z,10.10
2017-12-20T03:10:38.870Z,9.43
2017-12-20T03:15:40.073Z,8.07
2017-12-20T03:20:41.276Z,8.17
2017-12-20T03:25:43.218Z,8.47
2017-12-20T03:30:44.478Z,7.00
2017-12-20T03:35:46.445Z,7.37
2017-12-20T03:40:47.686Z,8.10
2017-12-20T03:45:48.885Z,6.10
2017-12-20T03:50:50.123Z,6.50
2017-12-20T03:55:51.313Z,6.37
2017-12-20T04:00:52.513Z,6.47
2017-12-20T04:05:54.455Z,7.33
2017-12-20T04:10:55.676Z,6.13
2017-12-20T04:15:56.903Z,6.67
2017-12-20T04:20:58.173Z,6.57
2017-12-20T04:25:59.409Z,7.13
2017-12-20T04:31:00.616Z,7.40
2017-12-20T04:36:01.846Z,6.50
2017-12-20T04:41:03.079Z,6.00
2017-12-20T04:46:04.261Z,6.33
2017-12-20T04:51:05.504Z,5.40
2017-12-20T04:56:07.436Z,6.17
2017-12-20T05:01:08.645Z,5.50
2017-12-20T05:06:09.833Z,6.07
2017-12-20T05:11:11.101Z,6.40
2017-12-20T05:16:12.318Z,6.50
2017-12-20T05:21:13.544Z,5.30
2017-12-20T05:26:14.769Z,5.50
2017-12-20T05:31:15.986Z,6.03
2017-12-20T05:36:17.214Z,5.67
2017-12-20T05:41:18.408Z,5.00
2017-12-20T05:46:19.602Z,5.27
2017-12-20T05:51:20.810Z,4.80
2017-12-20T05:56:22.032Z,5.07
2017-12-20T06:01:23.987Z,5.33
2017-12-20T06:06:25.214Z,5.33
2017-12-20T06:11:26.451Z,5.47
2017-12-20T06:16:27.641Z,6.40
2017-12-20T06:21:28.896Z,6.00
2017-12-20T06:26:30.874Z,5.80
2017-12-20T06:31:32.053Z,6.30
2017-12-20T06:36:34.016Z,7.33
2017-12-20T06:41:35.225Z,6.10
2017-12-20T06:46:36.425Z,6.53
2017-12-20T06:51:37.629Z,7.10
2017-12-20T06:56:39.615Z,8.00
2017-12-20T07:01:40.842Z,7.10
2017-12-20T07:06:42.814Z,7.03
2017-12-20T07:11:44.015Z,6.63
2017-12-20T07:16:46.001Z,7.17
2017-12-20T07:21:47.196Z,6.83
2017-12-20T07:26:48.393Z,6.20
2017-12-20T07:31:50.329Z,7.17
2017-12-20T07:36:51.537Z,6.80
2017-12-20T07:41:52.721Z,7.37
2017-12-20T07:46:53.921Z,7.33
2017-12-20T07:51:55.222Z,7.37
2017-12-20T07:56:56.439Z,7.40
2017-12-20T08:01:58.369Z,6.80
2017-12-20T08:06:59.578Z,6.70
2017-12-20T08:12:00.774Z,6.20
2017-12-20T08:17:01.961Z,6.87
2017-12-20T08:22:03.171Z,6.50
2017-12-20T08:27:04.390Z,6.57
2017-12-20T08:32:05.586Z,7.10
2017-12-20T08:37:06.794Z,6.80
2017-12-20T08:42:07.965Z,7.10
2017-12-20T08:47:09.141Z,6.53
2017-12-20T08:52:10.371Z,6.93
2017-12-20T08:57:11.566Z,6.50
2017-12-20T09:02:12.789Z,6.70
2017-12-20T09:07:13.969Z,5.83
2017-12-20T09:12:15.907Z,5.70
2017-12-20T09:17:17.163Z,5.77
2017-12-20T09:22:19.128Z,5.67
2017-12-20T09:27:20.342Z,5.83
2017-12-20T09:32:22.300Z,6.37
2017-12-20T09:37:23.535Z,5.77
2017-12-20T09:42:25.461Z,5.63
2017-12-20T09:47:26.649Z,6.10
2017-12-20T09:52:27.880Z,6.63
2017-12-20T09:57:29.121Z,5.70
2017-12-20T10:02:30.337Z,6.37
2017-12-20T10:07:32.389Z,6.50
2017-12-20T10:12:34.345Z,7.73
2017-12-20T10:17:35.537Z,19.77
2017-12-20T10:22:36.741Z,18.30
2017-12-20T10:27:37.961Z,9.20
2017-12-20T10:32:39.949Z,7.13
2017-12-20T10:37:41.173Z,7.60
2017-12-20T10:42:42.407Z,6.30
2017-12-20T10:47:43.723Z,6.30
2017-12-20T10:52:44.950Z,7.67
2017-12-20T10:57:46.189Z,6.10
2017-12-20T11:02:48.374Z,6.43
2017-12-20T11:07:49.600Z,7.20
2017-12-20T11:12:51.570Z,7.47
2017-12-20T11:17:52.785Z,7.23
2017-12-20T11:22:54.717Z,7.50
2017-12-20T11:27:56.109Z,8.10
2017-12-20T11:32:57.305Z,8.10
2017-12-20T11:37:58.510Z,8.87
2017-12-20T11:42:59.724Z,9.53
2017-12-20T11:48:00.938Z,9.23
2017-12-20T11:53:02.208Z,9.30
2017-12-20T11:58:04.168Z,8.83
2017-12-20T12:03:05.408Z,9.43
2017-12-20T12:08:07.419Z,9.47
2017-12-20T12:13:08.764Z,10.60
2017-12-20T12:18:09.977Z,10.77
2017-12-20T12:23:11.270Z,9.80
2017-12-20T12:28:13.220Z,11.50
2017-12-20T12:33:14.430Z,11.20
2017-12-20T12:38:15.669Z,11.33
2017-12-20T12:43:16.929Z,13.17
2017-12-20T12:48:18.099Z,12.10
2017-12-20T12:53:19.325Z,12.33
2017-12-20T12:58:20.555Z,10.97
2017-12-20T13:03:21.810Z,11.33
2017-12-20T13:08:23.039Z,11.90
2017-12-20T13:13:24.592Z,12.90
2017-12-20T13:18:25.864Z,13.77
2017-12-20T13:23:27.090Z,12.60
2017-12-20T13:28:28.918Z,14.10
2017-12-20T13:33:30.247Z,13.87
2017-12-20T13:38:31.483Z,15.20
2017-12-20T13:43:32.684Z,15.80
2017-12-20T13:48:33.901Z,14.60
2017-12-20T13:53:35.168Z,14.97
2017-12-20T13:58:36.393Z,14.37
2017-12-20T14:03:37.606Z,16.70
2017-12-20T14:08:38.810Z,16.40
2017-12-20T14:13:40.144Z,15.30
2017-12-20T14:18:41.437Z,15.23
2017-12-20T14:23:42.678Z,15.40
2017-12-20T14:28:43.909Z,14.90
2017-12-20T14:33:45.164Z,15.70
2017-12-20T14:38:46.395Z,15.30
2017-12-20T14:43:54.445Z,16.37
2017-12-20T14:48:55.621Z,14.07
2017-12-20T14:53:56.855Z,14.23
2017-12-20T14:58:58.075Z,14.97
2017-12-20T15:04:00.045Z,14.27
2017-12-20T15:09:01.279Z,14.30
2017-12-20T15:14:02.505Z,14.23
2017-12-20T15:19:03.718Z,14.03
2017-12-20T15:24:04.938Z,14.63
2017-12-20T15:29:06.164Z,14.20
2017-12-20T15:34:07.393Z,15.83
2017-12-20T15:39:09.337Z,14.60
2017-12-20T15:44:10.556Z,23.30
2017-12-20T15:49:11.772Z,16.90
2017-12-20T15:54:13.765Z,17.80
2017-12-20T15:59:14.967Z,15.10
2017-12-20T16:04:16.931Z,14.83
2017-12-20T16:09:18.141Z,15.17
2017-12-20T16:14:19.379Z,22.80
2017-12-20T16:19:20.637Z,18.67
2017-12-20T16:24:22.605Z,17.07
2017-12-20T16:29:23.821Z,16.33
2017-12-20T16:34:25.816Z,19.70
2017-12-20T16:39:27.038Z,19.30
2017-12-20T16:44:28.272Z,19.10
2017-12-20T16:49:29.494Z,20.20
2017-12-20T16:54:31.447Z,22.77
2017-12-20T16:59:32.630Z,21.40
2017-12-20T17:04:33.831Z,21.57
2017-12-20T17:09:35.066Z,21.60
2017-12-20T17:14:36.264Z,21.57
2017-12-20T17:19:37.499Z,18.13
2017-12-20T17:24:38.708Z,19.30
2017-12-20T17:29:40.636Z,17.90
2017-12-20T17:34:41.887Z,18.87
2017-12-20T17:39:43.147Z,19.90
2017-12-20T17:44:44.371Z,20.30
2017-12-20T17:49:46.394Z,19.07
2017-12-20T17:54:48.529Z,16.40
2017-12-20T17:59:49.748Z,17.07
2017-12-20T18:04:50.974Z,16.43
2017-12-20T18:09:52.916Z,16.13
2017-12-20T18:14:54.142Z,16.40
2017-12-20T18:19:56.274Z,16.23
2017-12-20T18:24:59.755Z,17.00
2017-12-20T18:30:01.001Z,17.57
2017-12-20T18:35:03.746Z,18.00
2017-12-20T18:40:05.001Z,16.77
2017-12-20T18:45:07.317Z,17.87
2017-12-20T18:50:11.398Z,19.40
2017-12-20T18:55:12.721Z,18.97
2017-12-20T19:00:13.946Z,19.60
2017-12-20T19:05:16.209Z,18.97
2017-12-20T19:10:17.572Z,18.20
2017-12-20T19:15:18.838Z,20.83
2017-12-20T19:20:20.786Z,20.57
2017-12-20T19:25:24.514Z,19.10
2017-12-20T19:30:25.902Z,19.67
2017-12-20T19:35:27.270Z,20.60
2017-12-20T19:40:28.886Z,21.23
2017-12-20T19:45:30.510Z,21.63
2017-12-20T19:50:31.736Z,19.90
2017-12-20T19:55:34.175Z,20.60
2017-12-20T20:00:35.777Z,19.53
2017-12-20T20:05:37.416Z,20.50
2017-12-20T20:10:39.081Z,20.20
2017-12-20T20:15:40.305Z,19.40
2017-12-20T20:20:41.926Z,20.23
2017-12-20T20:25:43.305Z,20.33
2017-12-20T20:30:45.696Z,21.20
2017-12-20T20:35:46.911Z,21.50
2017-12-20T20:40:50.610Z,22.90
2017-12-20T20:45:51.805Z,21.63
2017-12-20T20:50:52.978Z,20.17
2017-12-20T20:55:54.361Z,20.90
2017-12-20T21:00:55.957Z,21.33
2017-12-20T21:05:57.510Z,20.83
2017-12-20T21:10:58.818Z,20.60
2017-12-20T21:16:00.759Z,19.83
2017-12-20T21:21:02.214Z,19.63
2017-12-20T21:26:05.159Z,19.97
2017-12-20T21:31:07.616Z,18.60
2017-12-20T21:36:10.416Z,18.60
2017-12-20T21:41:12.423Z,20.37
2017-12-20T21:46:13.609Z,20.83
2017-12-20T21:51:14.883Z,19.30
2017-12-20T21:56:16.214Z,19.17
2017-12-20T22:01:17.442Z,18.63
2017-12-20T22:06:18.636Z,17.30
2017-12-20T22:11:19.856Z,17.73
2017-12-20T22:16:21.103Z,17.43
2017-12-20T22:21:22.374Z,14.90
2017-12-20T22:26:25.349Z,13.67
2017-12-20T22:31:26.530Z,15.57
2017-12-20T22:36:27.782Z,14.90
2017-12-20T22:41:29.703Z,15.50
2017-12-20T22:46:30.910Z,15.23
2017-12-20T22:51:32.125Z,15.70
2017-12-20T22:56:33.417Z,16.13
2017-12-20T23:01:34.646Z,17.13
2017-12-20T23:06:35.818Z,16.97
2017-12-20T23:11:37.010Z,15.60
2017-12-20T23:16:38.941Z,15.70
2017-12-20T23:21:40.127Z,16.17
2017-12-20T23:26:41.405Z,17.30
2017-12-20T23:31:42.634Z,16.90
2017-12-20T23:36:43.857Z,16.60
2017-12-20T23:41:45.972Z,18.33
2017-12-20T23:46:47.903Z,17.43
2017-12-20T23:51:49.106Z,17.97
2017-12-20T23:56:50.330Z,17.27
